Time;durP1;ratioP1;P1;durP2;ratioP2;P2;SDS_P1;SDS_P2;PMS_P1;PMS_P2;Temp;Humidity;BMP_temperature;BMP_pressure;BME280_temperature;BME280_humidity;BME280_pressure;Samples;Min_cycle;Max_cycle;Signal;HPM_P1;HPM_P2
2023/05/17 00:04:04;;;;;;;4.90;2.75;;;;;;;14.69;67.74;100593.56;10599521;27;20042;-72
2023/05/17 00:09:06;;;;;;;4.47;2.83;;;;;;;14.61;68.50;100599.84;10582324;27;20040;-73
2023/05/17 00:14:09;;;;;;;4.38;2.72;;;;;;;14.63;67.96;100614.16;10587875;27;20378;-73
2023/05/17 00:19:11;;;;;;;4.78;2.92;;;;;;;14.73;68.02;100611.16;10578118;27;20545;-73
2023/05/17 00:24:14;;;;;;;7.28;2.80;;;;;;;14.71;68.37;100610.66;10580103;27;20081;-73
2023/05/17 00:29:16;;;;;;;4.50;3.10;;;;;;;14.64;68.32;100604.72;10642031;27;20150;-73
2023/05/17 00:34:18;;;;;;;6.57;3.22;;;;;;;14.58;68.46;100610.66;10664920;27;20031;-73
2023/05/17 00:39:20;;;;;;;4.13;3.33;;;;;;;14.58;68.74;100605.97;10637427;27;20493;-73
2023/05/17 00:44:23;;;;;;;6.55;2.65;;;;;;;14.53;68.84;100613.53;10635573;27;20043;-73
2023/05/17 00:49:25;;;;;;;3.38;2.83;;;;;;;14.47;69.05;100610.06;10635113;27;20076;-73
2023/05/17 00:54:28;;;;;;;4.00;3.03;;;;;;;14.48;69.01;100620.81;10634684;27;20043;-73
2023/05/17 00:59:30;;;;;;;4.13;3.03;;;;;;;14.41;69.61;100609.34;10630871;27;20421;-73
2023/05/17 01:04:32;;;;;;;6.38;2.97;;;;;;;14.43;69.41;100620.91;10613564;27;20042;-73
2023/05/17 01:09:35;;;;;;;4.18;3.30;;;;;;;14.46;69.64;100619.47;10627868;27;20070;-73
2023/05/17 01:14:57;;;;;;;3.83;2.92;;;;;;;14.43;69.87;100617.31;10644522;27;20045;-73
2023/05/17 01:20:08;;;;;;;3.35;2.97;;;;;;;14.38;70.18;100617.38;10611346;27;20045;-72
2023/05/17 01:25:19;;;;;;;4.82;3.00;;;;;;;14.31;70.53;100617.00;10633565;27;20432;-73
2023/05/17 01:30:21;;;;;;;5.25;3.13;;;;;;;14.22;70.40;100629.84;10631867;27;20039;-73
2023/05/17 01:35:24;;;;;;;4.05;3.03;;;;;;;14.16;71.21;100632.72;10607253;27;20039;-73
2023/05/17 01:40:31;;;;;;;3.78;2.90;;;;;;;14.17;71.13;100628.03;10564105;28;20048;-73
2023/05/17 01:45:41;;;;;;;3.60;3.10;;;;;;;14.10;71.49;100633.97;10576265;27;20064;-73
2023/05/17 01:50:47;;;;;;;4.20;3.00;;;;;;;14.08;71.25;100627.09;10594158;27;20032;-73
2023/05/17 01:55:56;;;;;;;5.40;3.13;;;;;;;14.05;71.26;100623.00;10577926;27;20044;-73
2023/05/17 02:00:59;;;;;;;;;;;;;;;14.09;71.25;100614.94;10575856;28;20441;-73
2023/05/17 02:06:02;;;;;;;4.72;3.03;;;;;;;14.27;70.61;100627.03;10566716;27;19926;-73
2023/05/17 02:11:04;;;;;;;4.78;3.15;;;;;;;14.23;70.16;100624.06;10585701;27;20425;-73
2023/05/17 02:16:06;;;;;;;5.93;3.47;;;;;;;14.37;70.49;100629.56;10570097;28;20031;-73
2023/05/17 02:21:09;;;;;;;3.55;2.97;;;;;;;14.37;70.08;100627.63;10593535;28;20039;-73
2023/05/17 02:26:12;;;;;;;8.68;3.25;;;;;;;14.32;69.76;100624.16;10593764;28;20041;-73
2023/05/17 02:31:14;;;;;;;5.68;3.60;;;;;;;14.32;69.81;100621.38;10625136;27;20042;-73
2023/05/17 02:36:16;;;;;;;4.35;3.25;;;;;;;14.28;70.20;100640.50;10628023;28;20042;-73
2023/05/17 02:41:18;;;;;;;3.42;2.92;;;;;;;14.33;70.66;100625.78;10633501;28;20051;-73
2023/05/17 02:46:21;;;;;;;4.70;3.20;;;;;;;14.34;69.97;100643.97;10651905;28;20042;-73
2023/05/17 02:51:23;;;;;;;4.85;3.05;;;;;;;14.44;70.18;100660.38;10621216;27;20413;-73
2023/05/17 02:56:25;;;;;;;5.63;3.15;;;;;;;14.61;69.11;100654.25;10644095;27;20046;-73
2023/05/17 03:01:27;;;;;;;7.50;3.58;;;;;;;15.06;68.74;100639.44;10640552;27;20559;-73
2023/05/17 03:06:30;;;;;;;4.00;3.13;;;;;;;15.38;67.55;100641.16;10633143;27;20035;-72
2023/05/17 03:11:32;;;;;;;4.47;3.42;;;;;;;15.85;66.52;100638.94;10615866;27;20045;-72
2023/05/17 03:16:36;;;;;;;4.13;3.28;;;;;;;16.11;65.37;100646.53;10620611;27;20046;-72
2023/05/17 03:21:38;;;;;;;6.70;3.50;;;;;;;16.29;64.67;100642.72;10628656;27;20051;-72
2023/05/17 03:26:42;;;;;;;4.93;3.20;;;;;;;16.59;63.75;100652.94;10613511;27;20047;-72
2023/05/17 03:31:46;;;;;;;5.50;3.45;;;;;;;16.59;63.12;100657.66;10628721;27;20513;-72
2023/05/17 03:36:50;;;;;;;4.32;3.38;;;;;;;16.20;64.72;100645.47;10637513;27;20412;-72
2023/05/17 03:41:52;;;;;;;3.85;3.40;;;;;;;15.67;65.53;100664.84;10634509;27;20047;-73
2023/05/17 03:46:55;;;;;;;4.80;3.17;;;;;;;15.66;66.31;100674.28;10617153;27;20047;-73
2023/05/17 03:51:59;;;;;;;4.60;3.40;;;;;;;16.23;65.23;100661.44;10632287;27;20046;-73
2023/05/17 03:57:02;;;;;;;4.50;3.60;;;;;;;16.41;63.96;100667.06;10600736;27;20042;-73
2023/05/17 04:02:05;;;;;;;4.18;3.28;;;;;;;16.17;64.57;100681.28;10630181;27;20035;-73
2023/05/17 04:07:10;;;;;;;5.07;3.47;;;;;;;15.98;65.61;100673.19;10607627;27;20036;-72
2023/05/17 04:12:12;;;;;;;6.97;3.28;;;;;;;16.35;64.97;100666.38;10590865;27;20035;-72
2023/05/17 04:17:15;;;;;;;3.28;2.85;;;;;;;16.92;63.15;100666.44;10606076;27;20042;-72
2023/05/17 04:22:19;;;;;;;5.40;3.22;;;;;;;17.52;60.86;100662.88;10635807;27;20032;-73
2023/05/17 04:27:22;;;;;;;6.45;3.42;;;;;;;17.91;59.67;100664.69;10607405;27;20268;-72
2023/05/17 04:32:24;;;;;;;4.18;3.17;;;;;;;18.30;59.34;100660.00;10614177;27;20509;-73
2023/05/17 04:37:27;;;;;;;4.30;3.55;;;;;;;17.98;59.27;100658.63;10598284;27;20440;-72
2023/05/17 04:42:34;;;;;;;3.63;3.20;;;;;;;17.89;60.17;100668.94;10637905;27;20039;-72
2023/05/17 04:47:38;;;;;;;6.35;3.03;;;;;;;18.58;58.55;100657.59;10638434;27;20043;-73
2023/05/17 04:52:40;;;;;;;7.28;3.58;;;;;;;18.46;57.82;100671.38;10624395;27;20035;-73
2023/05/17 04:57:44;;;;;;;3.20;2.88;;;;;;;18.54;58.21;100684.41;10617589;27;20393;-73
2023/05/17 05:02:49;;;;;;;5.00;3.35;;;;;;;18.33;57.45;100676.78;10623275;27;20035;-73
2023/05/17 05:07:52;;;;;;;6.03;3.40;;;;;;;18.07;58.58;100684.41;10611782;27;20560;-73
2023/05/17 05:12:54;;;;;;;3.10;2.45;;;;;;;17.91;59.26;100683.28;10601086;27;20410;-73
2023/05/17 05:17:57;;;;;;;6.03;2.92;;;;;;;17.80;59.40;100685.59;10581810;27;20042;-73
2023/05/17 05:23:02;;;;;;;6.28;3.67;;;;;;;17.85;59.07;100692.91;10613570;27;20043;-73
2023/05/17 05:28:05;;;;;;;3.03;2.70;;;;;;;17.88;58.86;100686.75;10618449;27;20047;-73
2023/05/17 05:33:08;;;;;;;4.40;2.95;;;;;;;17.40;59.70;100699.63;10600903;27;20528;-73
2023/05/17 05:38:11;;;;;;;6.00;3.03;;;;;;;17.36;59.39;100693.09;10617354;27;20035;-73
2023/05/17 05:43:14;;;;;;;5.72;3.20;;;;;;;17.69;59.02;100706.50;10617394;27;20035;-71
2023/05/17 05:48:17;;;;;;;5.40;3.10;;;;;;;17.92;57.68;100698.81;10626338;27;20418;-73
2023/05/17 05:53:19;;;;;;;4.97;3.30;;;;;;;18.07;57.53;100695.50;10624330;27;20409;-73
2023/05/17 05:58:26;;;;;;;3.53;2.78;;;;;;;18.12;56.86;100709.22;10612546;27;20031;-73
2023/05/17 06:03:29;;;;;;;3.22;2.58;;;;;;;18.87;55.48;100690.16;10606049;27;20051;-73
2023/05/17 06:08:32;;;;;;;3.28;2.75;;;;;;;19.10;55.07;100701.81;10625451;27;20049;-73
2023/05/17 06:13:34;;;;;;;7.88;2.67;;;;;;;19.84;52.53;100693.56;10648857;27;20035;-73
2023/05/17 06:18:36;;;;;;;6.13;2.72;;;;;;;19.65;52.88;100703.56;10632196;27;20400;-73
2023/05/17 06:23:39;;;;;;;3.50;2.60;;;;;;;19.35;52.12;100711.13;10628336;27;20500;-73
2023/05/17 06:28:41;;;;;;;2.58;2.38;;;;;;;18.52;53.77;100704.19;10588483;27;20043;-73
2023/05/17 06:33:43;;;;;;;5.05;2.60;;;;;;;17.95;54.77;100709.25;10632926;27;20497;-73
2023/05/17 06:38:45;;;;;;;6.45;2.72;;;;;;;17.77;56.83;100722.34;10615375;27;20063;-73
2023/05/17 06:43:47;;;;;;;5.75;2.80;;;;;;;17.58;56.96;100722.63;10631420;27;20042;-72
2023/05/17 06:48:49;;;;;;;5.00;2.67;;;;;;;17.20;58.66;100733.53;10639572;27;20054;-75
2023/05/17 06:53:52;;;;;;;3.65;2.25;;;;;;;17.14;57.40;100748.66;10640441;27;20027;-74
2023/05/17 06:58:54;;;;;;;4.88;2.00;;;;;;;16.96;57.58;100756.13;10643529;27;20554;-74
2023/05/17 07:03:56;;;;;;;4.68;1.75;;;;;;;16.92;57.00;100757.09;10644993;27;20047;-74
2023/05/17 07:08:58;;;;;;;5.18;2.00;;;;;;;16.76;56.80;100756.69;10623524;27;20056;-74
2023/05/17 07:14:01;;;;;;;3.15;1.50;;;;;;;16.93;56.09;100758.72;10639638;27;20504;-74
2023/05/17 07:19:03;;;;;;;1.75;1.45;;;;;;;16.93;55.74;100772.56;10648015;27;20038;-73
2023/05/17 07:24:05;;;;;;;2.95;1.30;;;;;;;16.95;56.16;100781.38;10622866;27;20047;-73
2023/05/17 07:29:07;;;;;;;1.45;1.20;;;;;;;16.91;57.00;100775.69;10599397;28;20052;-74
2023/05/17 07:34:09;;;;;;;1.55;1.45;;;;;;;16.72;56.65;100788.97;10601452;27;20430;-73
2023/05/17 07:39:11;;;;;;;2.65;1.45;;;;;;;16.72;57.63;100794.50;10642036;27;20042;-73
2023/05/17 07:44:14;;;;;;;1.70;1.60;;;;;;;16.68;57.51;100796.28;10659642;27;20051;-73
2023/05/17 07:49:16;;;;;;;1.63;1.40;;;;;;;16.65;58.48;100796.88;10651035;27;20039;-73
2023/05/17 07:54:23;;;;;;;1.70;1.60;;;;;;;16.63;58.68;100804.69;10640996;27;20055;-75
2023/05/17 07:59:25;;;;;;;2.13;1.67;;;;;;;16.69;58.67;100800.69;10641559;27;20089;-74
2023/05/17 08:04:27;;;;;;;2.03;1.33;;;;;;;16.57;59.12;100807.59;10639194;27;20428;-73
2023/05/17 08:09:30;;;;;;;3.47;2.10;;;;;;;16.55;59.52;100804.31;10659212;27;20039;-73
2023/05/17 08:14:32;;;;;;;2.63;1.75;;;;;;;16.72;58.88;100811.94;10640204;27;20058;-73
2023/05/17 08:19:34;;;;;;;1.63;1.52;;;;;;;16.86;58.80;100817.41;10658607;27;20035;-73
2023/05/17 08:24:37;;;;;;;2.05;1.85;;;;;;;17.12;59.01;100821.09;10639887;27;20412;-74
2023/05/17 08:29:39;;;;;;;6.32;2.13;;;;;;;17.14;57.21;100827.13;10639505;27;20047;-74
2023/05/17 08:34:41;;;;;;;2.08;1.73;;;;;;;17.02;57.77;100831.66;10656406;27;20097;-74
2023/05/17 08:39:43;;;;;;;2.17;1.98;;;;;;;16.93;58.23;100842.69;10623065;27;20036;-73
2023/05/17 08:44:46;;;;;;;4.65;2.00;;;;;;;16.89;58.11;100844.47;10620981;27;20383;-73
2023/05/17 08:49:48;;;;;;;4.20;2.15;;;;;;;16.77;58.74;100845.06;10639009;27;20062;-73
2023/05/17 08:54:50;;;;;;;4.55;2.25;;;;;;;16.68;58.45;100854.47;10628380;27;20031;-73
2023/05/17 08:59:53;;;;;;;3.15;2.10;;;;;;;16.61;59.15;100862.38;10622314;27;20046;-73
2023/05/17 09:04:56;;;;;;;2.55;2.30;;;;;;;16.72;59.12;100861.00;10639130;27;20043;-74
2023/05/17 09:09:58;;;;;;;5.82;2.00;;;;;;;16.95;58.12;100864.56;10639836;27;20043;-72
2023/05/17 09:15:14;;;;;;;2.55;2.20;;;;;;;17.30;56.93;100868.28;10657548;27;20043;-74
2023/05/17 09:20:33;;;;;;;3.03;2.10;;;;;;;17.42;57.16;100874.06;10655917;27;20039;-74
2023/05/17 09:25:36;;;;;;;2.28;2.08;;;;;;;17.35;56.74;100884.78;10638444;27;20830;-74
2023/05/17 09:30:38;;;;;;;2.20;2.00;;;;;;;17.07;57.47;100879.47;10656253;27;20521;-74
2023/05/17 09:35:42;;;;;;;2.38;1.88;;;;;;;16.95;57.99;100881.19;10650612;27;20037;-73
2023/05/17 09:40:46;;;;;;;1.60;1.50;;;;;;;16.69;58.52;100890.19;10613444;27;20039;-72
2023/05/17 09:45:58;;;;;;;2.58;1.88;;;;;;;16.62;59.16;100888.94;10582884;28;20050;-73
2023/05/17 09:51:00;;;;;;;2.85;2.20;;;;;;;16.75;59.03;100882.53;10582797;27;20040;-73
2023/05/17 09:56:04;;;;;;;4.68;2.20;;;;;;;17.04;58.60;100882.88;10611925;28;20039;-73
2023/05/17 10:01:07;;;;;;;3.50;2.13;;;;;;;17.14;57.48;100896.44;10611650;28;20042;-73
2023/05/17 10:06:11;;;;;;;1.95;1.67;;;;;;;17.22;57.57;100894.06;10593523;28;20044;-73
2023/05/17 10:11:13;;;;;;;3.15;1.80;;;;;;;17.54;56.30;100890.91;10576432;28;20051;-74
2023/05/17 10:16:15;;;;;;;3.00;2.45;;;;;;;17.86;55.99;100891.66;10611387;28;20044;-74
2023/05/17 10:21:17;;;;;;;3.75;2.20;;;;;;;18.29;54.89;100892.53;10611441;28;20317;-74
2023/05/17 10:26:19;;;;;;;2.63;2.28;;;;;;;18.39;54.42;100886.63;10646559;28;20035;-74
2023/05/17 10:31:23;;;;;;;3.28;2.00;;;;;;;18.58;54.29;100904.94;10623669;27;20059;-75
2023/05/17 10:36:25;;;;;;;1.73;1.63;;;;;;;18.76;53.04;100903.00;10609995;27;20042;-74
2023/05/17 10:41:35;;;;;;;4.43;1.90;;;;;;;18.93;53.40;100898.22;10604636;28;20125;-72
2023/05/17 10:46:38;;;;;;;3.70;2.10;;;;;;;19.16;53.01;100898.78;10597450;28;20044;-71
2023/05/17 10:51:40;;;;;;;3.33;2.22;;;;;;;19.24;52.27;100897.09;10617210;28;20042;-69
2023/05/17 10:56:52;;;;;;;2.13;1.90;;;;;;;19.06;52.25;100903.88;10633995;28;20513;-71
2023/05/17 11:02:02;;;;;;;2.15;1.92;;;;;;;18.98;52.52;100897.22;10638651;28;20050;-71
2023/05/17 11:07:17;;;;;;;2.97;1.90;;;;;;;19.01;52.37;100912.41;10652755;28;20035;-71
2023/05/17 11:12:40;;;;;;;2.40;2.20;;;;;;;18.98;52.20;100903.59;10656939;27;20559;-71
2023/05/17 11:17:45;;;;;;;3.85;1.80;;;;;;;19.02;52.15;100891.78;10642988;27;20047;-71
2023/05/17 11:23:05;;;;;;;3.13;2.35;;;;;;;19.09;51.75;100894.88;10656323;27;20043;-71
2023/05/17 11:28:18;;;;;;;2.80;2.10;;;;;;;19.16;52.11;100897.97;10660406;27;20054;-71
2023/05/17 11:33:36;;;;;;;2.80;2.20;;;;;;;19.30;50.84;100895.78;10618769;27;20047;-71
2023/05/17 11:38:39;;;;;;;2.47;2.28;;;;;;;19.43;50.97;100897.50;10639593;27;20412;-72
2023/05/17 11:43:44;;;;;;;2.45;2.25;;;;;;;19.42;50.80;100897.84;10639923;27;20190;-71
2023/05/17 11:48:49;;;;;;;3.08;2.15;;;;;;;19.26;51.16;100898.44;10617213;28;20040;-71
2023/05/17 11:53:54;;;;;;;4.13;2.70;;;;;;;19.29;50.80;100910.84;10644973;27;20037;-71
2023/05/17 11:58:56;;;;;;;5.38;2.70;;;;;;;19.43;50.88;100907.81;10641490;27;20039;-70
2023/05/17 12:03:58;;;;;;;4.82;2.90;;;;;;;19.49;50.62;100898.16;10658554;27;20123;-71
2023/05/17 12:09:02;;;;;;;3.25;2.40;;;;;;;19.60;49.68;100893.84;10657811;27;20519;-70
2023/05/17 12:14:05;;;;;;;5.05;2.65;;;;;;;19.74;48.99;100888.06;10623586;27;20409;-70
2023/05/17 12:19:17;;;;;;;3.28;2.67;;;;;;;19.79;48.92;100891.47;10639314;27;20035;-71
2023/05/17 12:24:19;;;;;;;2.83;2.55;;;;;;;19.96;48.67;100890.56;10633168;27;20046;-71
2023/05/17 12:29:22;;;;;;;5.25;2.60;;;;;;;20.17;48.79;100888.59;10651075;27;20047;-71
2023/05/17 12:34:24;;;;;;;3.35;2.50;;;;;;;20.34;48.13;100884.03;10653776;27;20043;-71
2023/05/17 12:39:26;;;;;;;2.40;2.20;;;;;;;20.33;47.85;100885.19;10638266;27;20054;-72
2023/05/17 12:44:28;;;;;;;2.70;2.45;;;;;;;20.28;47.64;100879.78;10631832;27;20043;-72
2023/05/17 12:49:36;;;;;;;3.83;2.40;;;;;;;20.11;47.63;100884.34;10633701;27;20047;-71
2023/05/17 12:54:39;;;;;;;4.70;2.75;;;;;;;20.01;48.15;100878.38;10656049;27;20527;-72
2023/05/17 12:59:46;;;;;;;4.90;2.92;;;;;;;20.16;47.96;100892.53;10642451;27;20040;-72
2023/05/17 13:04:48;;;;;;;5.05;2.58;;;;;;;20.31;47.41;100882.75;10646887;27;20126;-72
2023/05/17 13:09:50;;;;;;;3.58;2.75;;;;;;;20.36;47.60;100890.06;10611397;27;20047;-73
2023/05/17 13:14:53;;;;;;;3.75;2.75;;;;;;;20.21;47.76;100876.75;10637033;27;20042;-72
2023/05/17 13:19:56;;;;;;;6.38;2.70;;;;;;;20.09;47.88;100878.31;10634760;27;20046;-72
2023/05/17 13:24:58;;;;;;;3.40;3.00;;;;;;;20.02;47.79;100883.63;10636166;27;20030;-72
2023/05/17 13:30:00;;;;;;;5.03;3.03;;;;;;;20.06;47.97;100878.19;10633444;27;20058;-71
2023/05/17 13:35:02;;;;;;;3.88;2.58;;;;;;;20.04;47.49;100872.13;10647082;27;20043;-71
2023/05/17 13:40:05;;;;;;;2.83;2.35;;;;;;;20.13;47.66;100882.06;10633948;27;20035;-71
2023/05/17 13:45:10;;;;;;;2.67;2.42;;;;;;;20.21;47.60;100883.13;10656948;27;20043;-71
2023/05/17 13:50:15;;;;;;;2.55;2.35;;;;;;;20.22;47.97;100886.75;10652385;27;20039;-72
2023/05/17 13:55:18;;;;;;;3.70;2.60;;;;;;;20.16;47.96;100884.16;10630001;27;20034;-72
2023/05/17 14:00:20;;;;;;;2.97;2.47;;;;;;;20.17;47.21;100871.88;10646780;27;20039;-72
2023/05/17 14:05:23;;;;;;;4.97;2.50;;;;;;;20.27;47.35;100867.84;10648399;27;20051;-71
2023/05/17 14:10:25;;;;;;;2.88;2.63;;;;;;;20.23;47.29;100866.06;10650641;27;20039;-71
2023/05/17 14:15:28;;;;;;;4.22;2.50;;;;;;;20.37;47.30;100869.41;10651229;27;20034;-71
2023/05/17 14:20:30;;;;;;;3.42;2.75;;;;;;;20.44;47.40;100852.97;10617665;27;20043;-72
2023/05/17 14:25:32;;;;;;;2.85;2.58;;;;;;;20.38;46.96;100855.13;10617615;27;20039;-72
2023/05/17 14:30:34;;;;;;;4.68;2.47;;;;;;;20.18;47.23;100851.22;10613623;28;20531;-71
2023/05/17 14:35:36;;;;;;;4.50;2.72;;;;;;;20.09;47.79;100850.44;10624918;28;20039;-72
2023/05/17 14:40:39;;;;;;;4.70;2.53;;;;;;;19.98;47.84;100854.81;10596534;28;20051;-72
2023/05/17 14:45:41;;;;;;;5.63;3.03;;;;;;;19.95;48.49;100849.09;10595973;28;20039;-72
2023/05/17 14:50:43;;;;;;;3.55;2.55;;;;;;;19.90;48.13;100849.28;10592564;27;20048;-71
2023/05/17 14:55:46;;;;;;;3.75;2.92;;;;;;;19.86;48.38;100854.72;10618346;27;20413;-71
2023/05/17 15:00:53;;;;;;;6.07;3.47;;;;;;;19.98;48.51;100848.44;10607480;27;20414;-71
2023/05/17 15:05:57;;;;;;;7.63;3.33;;;;;;;19.97;48.17;100847.63;10595667;28;20050;-70
2023/05/17 15:10:59;;;;;;;3.53;2.80;;;;;;;20.04;47.45;100850.66;10598044;27;20052;-70
2023/05/17 15:16:02;;;;;;;4.22;3.03;;;;;;;;;;10590144;28;20036;-70
2023/05/17 15:21:04;;;;;;;2.65;2.42;;;;;;;20.02;48.02;100839.03;10613530;28;20055;-69
2023/05/17 15:26:06;;;;;;;3.05;2.63;;;;;;;19.93;47.70;100843.84;10594769;28;20405;-70
2023/05/17 15:31:11;;;;;;;2.75;2.30;;;;;;;19.83;47.33;100847.88;10652932;27;20087;-71
2023/05/17 15:36:15;;;;;;;2.35;2.15;;;;;;;19.81;47.45;100835.44;10633464;27;20050;-70
2023/05/17 15:41:20;;;;;;;4.43;2.90;;;;;;;19.74;48.33;100851.84;10636827;27;20054;-70
2023/05/17 15:46:22;;;;;;;3.80;2.95;;;;;;;19.64;47.81;100835.56;10655249;27;20051;-72
2023/05/17 15:51:25;;;;;;;5.00;2.85;;;;;;;19.54;48.55;100836.75;10634177;27;20493;-71
2023/05/17 15:56:27;;;;;;;3.15;2.58;;;;;;;19.53;48.31;100838.69;10619361;27;20031;-71
2023/05/17 16:01:29;;;;;;;7.00;2.75;;;;;;;19.42;48.64;100834.66;10655463;27;20039;-71
2023/05/17 16:06:34;;;;;;;4.13;2.40;;;;;;;19.42;48.98;100833.84;10632583;27;20046;-72
2023/05/17 16:11:36;;;;;;;5.72;2.55;;;;;;;19.39;49.34;100818.63;10652664;27;20045;-75
2023/05/17 16:16:38;;;;;;;3.47;2.83;;;;;;;19.34;49.82;100806.88;10638249;27;20050;-73
2023/05/17 16:21:41;;;;;;;7.95;2.85;;;;;;;19.55;49.22;100814.16;10655047;27;20050;-74
2023/05/17 16:26:43;;;;;;;4.03;2.50;;;;;;;19.53;49.31;100808.06;10654119;27;20031;-74
2023/05/17 16:31:47;;;;;;;5.47;2.55;;;;;;;19.62;49.29;100810.84;10615658;27;20047;-74
2023/05/17 16:36:49;;;;;;;5.47;3.35;;;;;;;19.55;48.94;100805.78;10635260;27;20046;-72
2023/05/17 16:41:51;;;;;;;6.07;2.58;;;;;;;19.58;49.10;100804.31;10658932;27;20043;-74
2023/05/17 16:46:54;;;;;;;6.60;2.83;;;;;;;19.56;48.80;100799.06;10656603;27;20381;-73
2023/05/17 16:51:56;;;;;;;1.60;1.50;;;;;;;19.63;48.48;100792.19;10619226;27;20047;-74
2023/05/17 16:56:58;;;;;;;3.78;2.33;;;;;;;19.53;48.78;100799.72;10638727;27;20040;-74
2023/05/17 17:02:06;;;;;;;3.03;2.20;;;;;;;19.28;49.31;100809.88;10674089;27;20045;-75
2023/05/17 17:07:08;;;;;;;3.13;2.75;;;;;;;19.30;49.42;100817.06;10617378;27;20042;-74
2023/05/17 17:12:12;;;;;;;7.35;2.65;;;;;;;19.46;49.22;100799.47;10653963;27;20047;-74
2023/05/17 17:17:15;;;;;;;6.45;2.63;;;;;;;19.38;49.45;100805.88;10613590;27;20055;-74
2023/05/17 17:22:17;;;;;;;3.03;2.72;;;;;;;19.39;49.34;100815.03;10649731;27;20035;-74
2023/05/17 17:27:19;;;;;;;3.83;2.90;;;;;;;19.26;50.05;100809.41;10631275;27;20035;-76
2023/05/17 17:32:22;;;;;;;5.50;2.92;;;;;;;19.20;49.94;100815.47;10662961;27;20054;-73
2023/05/17 17:37:24;;;;;;;5.68;2.88;;;;;;;19.19;49.85;100819.41;10659343;27;20041;-73
2023/05/17 17:42:27;;;;;;;3.33;2.80;;;;;;;19.27;50.16;100822.16;10638177;27;20049;-74
2023/05/17 17:47:29;;;;;;;5.95;3.53;;;;;;;19.29;50.10;100810.69;10639710;27;20039;-74
2023/05/17 17:52:31;;;;;;;4.40;3.00;;;;;;;19.09;50.02;100834.50;10618739;27;20038;-74
2023/05/17 17:57:33;;;;;;;3.38;2.88;;;;;;;19.17;50.37;100824.47;10628892;27;20414;-75
2023/05/17 18:02:35;;;;;;;6.38;3.20;;;;;;;19.03;50.66;100838.63;10651227;27;20039;-74
2023/05/17 18:07:38;;;;;;;5.38;3.05;;;;;;;18.93;51.13;100834.25;10675901;27;20518;-74
2023/05/17 18:12:40;;;;;;;4.15;3.13;;;;;;;18.96;52.06;100836.34;10681781;27;20039;-74
2023/05/17 18:17:42;;;;;;;5.95;3.05;;;;;;;18.82;52.45;100844.09;10628719;27;20512;-75
2023/05/17 18:22:44;;;;;;;7.88;3.50;;;;;;;18.71;53.08;100842.78;10648611;27;20053;-74
2023/05/17 18:27:46;;;;;;;5.32;3.10;;;;;;;18.31;54.44;100854.13;10601942;28;20027;-75
2023/05/17 18:32:49;;;;;;;4.28;2.95;;;;;;;18.27;54.92;100850.38;10652365;27;20047;-76
2023/05/17 18:37:51;;;;;;;5.00;3.03;;;;;;;18.16;55.88;100853.78;10650244;27;20041;-76
2023/05/17 18:42:53;;;;;;;5.68;2.85;;;;;;;18.18;55.70;100857.88;10652339;27;20058;-74
2023/05/17 18:47:55;;;;;;;3.42;3.13;;;;;;;18.19;56.01;100853.13;10647727;27;20578;-74
2023/05/17 18:52:59;;;;;;;5.82;3.38;;;;;;;18.16;56.22;100862.94;10632300;27;20036;-75
2023/05/17 18:58:01;;;;;;;5.60;3.38;;;;;;;18.26;56.30;100854.28;10661284;27;20501;-75
2023/05/17 19:03:03;;;;;;;3.33;3.03;;;;;;;18.29;56.23;100861.97;10632129;28;20050;-76
2023/05/17 19:08:05;;;;;;;4.18;3.30;;;;;;;18.06;56.33;100857.72;10632569;27;20039;-76
2023/05/17 19:13:08;;;;;;;4.75;3.17;;;;;;;18.05;57.63;100858.88;10625584;28;20047;-75
2023/05/17 19:18:10;;;;;;;4.07;3.03;;;;;;;17.96;57.48;100849.72;10622558;28;20062;-74
2023/05/17 19:23:12;;;;;;;4.15;3.40;;;;;;;17.98;57.04;100847.41;10624146;27;20050;-77
2023/05/17 19:28:14;;;;;;;5.68;3.60;;;;;;;18.13;56.78;100832.22;10634347;27;20530;-75
2023/05/17 19:33:16;;;;;;;4.55;3.50;;;;;;;17.97;57.06;100843.00;10635021;27;20065;-74
2023/05/17 19:38:19;;;;;;;3.95;3.28;;;;;;;17.57;57.79;100836.72;10620665;27;20042;-75
2023/05/17 19:43:21;;;;;;;4.10;2.97;;;;;;;17.88;57.46;100842.19;10637891;27;20121;-74
2023/05/17 19:48:23;;;;;;;4.00;2.85;;;;;;;17.96;56.80;100844.97;10627168;27;20043;-74
2023/05/17 19:53:25;;;;;;;4.40;3.10;;;;;;;17.86;57.53;100855.56;10636613;27;20043;-75
2023/05/17 19:58:28;;;;;;;5.65;3.20;;;;;;;17.78;57.84;100835.81;10643436;27;20039;-82
2023/05/17 20:03:30;;;;;;;7.68;3.60;;;;;;;17.80;58.42;100826.34;10632291;27;20051;-75
2023/05/17 20:08:32;;;;;;;3.63;2.88;;;;;;;17.56;59.59;100830.38;10640246;27;20027;-75
2023/05/17 20:13:38;;;;;;;5.07;3.00;;;;;;;17.51;59.03;100833.28;10653446;27;20050;-74
2023/05/17 20:18:41;;;;;;;3.03;2.63;;;;;;;17.25;59.83;100840.72;10610034;27;20035;-77
2023/05/17 20:23:44;;;;;;;5.05;2.95;;;;;;;17.25;60.13;100847.06;10634139;27;20057;-75
2023/05/17 20:28:47;;;;;;;5.28;3.28;;;;;;;17.34;60.17;100838.78;10632811;27;20578;-74
2023/05/17 20:33:49;;;;;;;3.58;2.90;;;;;;;17.14;60.58;100829.91;10590339;27;20048;-77
2023/05/17 20:38:52;;;;;;;3.67;2.85;;;;;;;17.22;60.75;100830.25;10609349;27;20047;-78
2023/05/17 20:43:54;;;;;;;3.70;3.03;;;;;;;17.07;61.05;100829.56;10558752;27;20055;-77
2023/05/17 20:48:56;;;;;;;5.50;3.22;;;;;;;16.84;61.87;100839.91;10595316;28;20049;-77
2023/05/17 20:53:59;;;;;;;3.92;2.80;;;;;;;16.85;62.42;100838.75;10581308;27;20044;-77
2023/05/17 20:59:02;;;;;;;4.30;3.05;;;;;;;17.05;62.51;100845.69;10582440;28;20051;-77
2023/05/17 21:04:04;;;;;;;3.97;3.55;;;;;;;17.00;62.89;100845.00;10587642;28;20512;-77
2023/05/17 21:09:09;;;;;;;5.68;3.17;;;;;;;16.65;63.68;100849.50;10548970;28;20408;-76
2023/05/17 21:14:11;;;;;;;4.07;3.60;;;;;;;16.42;65.55;100844.00;10562646;27;20039;-74
2023/05/17 21:19:13;;;;;;;4.00;3.38;;;;;;;16.13;67.36;100846.38;10586471;28;20040;-75
2023/05/17 21:24:16;;;;;;;7.10;3.80;;;;;;;16.00;68.90;100850.84;10603481;27;20047;-74
2023/05/17 21:29:18;;;;;;;4.43;3.28;;;;;;;16.05;68.64;100847.13;10575595;27;20047;-72
2023/05/17 21:34:20;;;;;;;4.78;3.78;;;;;;;15.83;70.31;100857.03;10649803;27;20038;-72
2023/05/17 21:39:22;;;;;;;5.90;3.97;;;;;;;15.86;70.21;100850.88;10616207;27;20035;-73
2023/05/17 21:44:24;;;;;;;4.32;3.25;;;;;;;15.49;71.81;100846.41;10623537;27;20039;-72
2023/05/17 21:49:27;;;;;;;5.32;3.45;;;;;;;15.26;73.04;100847.44;10649901;27;20038;-72
2023/05/17 21:54:29;;;;;;;5.97;4.15;;;;;;;15.30;73.44;100851.22;10620396;27;20062;-73
2023/05/17 21:59:32;;;;;;;5.93;4.10;;;;;;;15.01;74.55;100868.91;10610503;27;20043;-72
2023/05/17 22:04:35;;;;;;;6.85;4.50;;;;;;;14.82;74.85;100876.47;10607493;27;20039;-72
2023/05/17 22:09:37;;;;;;;4.95;4.30;;;;;;;14.72;74.19;100880.22;10645133;27;20050;-73
2023/05/17 22:14:43;;;;;;;6.38;4.38;;;;;;;14.39;75.86;100879.34;10620705;27;20035;-72
2023/05/17 22:19:45;;;;;;;4.80;4.03;;;;;;;14.35;75.83;100878.31;10645937;27;20042;-72
2023/05/17 22:24:53;;;;;;;5.65;3.38;;;;;;;14.05;76.90;100882.38;10621017;27;20042;-75
2023/05/17 22:29:55;;;;;;;6.32;4.10;;;;;;;14.21;76.09;100871.91;10606416;28;20058;-75
2023/05/17 22:34:57;;;;;;;7.55;4.07;;;;;;;14.02;77.12;100882.97;10635005;27;20039;-75
2023/05/17 22:39:59;;;;;;;5.80;4.20;;;;;;;14.26;76.87;100877.38;10646906;27;20035;-74
2023/05/17 22:45:02;;;;;;;5.32;4.13;;;;;;;14.19;76.04;100880.50;10609294;27;20048;-75
2023/05/17 22:50:05;;;;;;;9.70;4.00;;;;;;;14.18;76.56;100884.38;10645573;27;20058;-75
2023/05/17 22:55:08;;;;;;;4.57;3.65;;;;;;;14.33;75.44;100888.84;10599042;27;20031;-72
2023/05/17 23:00:11;;;;;;;6.05;3.88;;;;;;;14.40;75.98;100891.22;10653180;27;20449;-71
2023/05/17 23:05:13;;;;;;;6.50;3.60;;;;;;;14.19;75.82;100908.09;10652556;27;20031;-71
2023/05/17 23:10:15;;;;;;;5.07;3.30;;;;;;;14.34;75.12;100914.50;10659424;27;20490;-71
2023/05/17 23:15:17;;;;;;;4.68;3.70;;;;;;;14.27;75.34;100919.59;10660232;27;20035;-72